Time;durP1;ratioP1;P1;durP2;ratioP2;P2;SDS_P1;SDS_P2;PMS_P1;PMS_P2;Temp;Humidity;BMP_temperature;BMP_pressure;BME280_temperature;BME280_humidity;BME280_pressure;Samples;Min_cycle;Max_cycle;Signal;HPM_P1;HPM_P2
2023/04/02 00:02:19;;;;;;;10.55;3.03;;;3.80;99.90;;;;;;5093874;28;20497;-50
2023/04/02 00:05:15;;;;;;;7.63;2.78;;;3.70;99.90;;;;;;5092628;28;20127;-48
2023/04/02 00:07:43;;;;;;;8.43;3.00;;;3.70;99.90;;;;;;5093617;28;20082;-47
2023/04/02 00:10:27;;;;;;;6.32;2.40;;;3.70;99.90;;;;;;5092353;28;20363;-48
2023/04/02 00:13:28;;;;;;;10.73;2.92;;;3.50;99.90;;;;;;5093646;28;20055;-49
2023/04/02 00:15:56;;;;;;;11.00;3.20;;;3.60;99.90;;;;;;5079864;28;20199;-49
2023/04/02 00:18:23;;;;;;;6.80;2.47;;;3.60;99.90;;;;;;5093682;28;20032;-48
2023/04/02 00:20:59;;;;;;;7.85;2.97;;;3.60;99.90;;;;;;5092345;28;20040;-49
2023/04/02 00:23:25;;;;;;;8.55;2.88;;;3.50;99.90;;;;;;5092413;28;20123;-51
2023/04/02 00:25:51;;;;;;;8.52;2.72;;;3.50;99.90;;;;;;5093241;28;20430;-48
2023/04/02 00:28:22;;;;;;;8.70;3.33;;;3.50;99.90;;;;;;5093520;28;20040;-49
2023/04/02 00:30:50;;;;;;;7.80;3.25;;;3.50;99.90;;;;;;5093470;28;20047;-48
2023/04/02 00:33:18;;;;;;;8.05;2.75;;;3.40;99.90;;;;;;5093176;28;20044;-52
2023/04/02 00:35:46;;;;;;;8.35;2.88;;;3.40;99.90;;;;;;5092976;28;20051;-53
2023/04/02 00:38:21;;;;;;;9.88;2.80;;;3.40;99.90;;;;;;5093043;28;20032;-47
2023/04/02 00:40:48;;;;;;;7.57;2.38;;;3.30;99.90;;;;;;5093124;28;20107;-49
2023/04/02 00:43:19;;;;;;;9.27;2.55;;;3.30;99.90;;;;;;5091587;28;20056;-49
2023/04/02 00:45:49;;;;;;;7.73;2.87;;;3.30;99.90;;;;;;5092950;28;20481;-51
2023/04/02 00:48:49;;;;;;;9.38;3.75;;;3.30;99.90;;;;;;5092937;28;20115;-48
2023/04/02 00:51:18;;;;;;;9.45;3.05;;;3.30;99.90;;;;;;5092594;28;20100;-49
2023/04/02 00:53:46;;;;;;;6.65;2.53;;;3.20;99.90;;;;;;5092841;28;20500;-52
2023/04/02 00:56:26;;;;;;;11.02;3.03;;;3.20;99.90;;;;;;5092662;28;20098;-51
2023/04/02 00:58:54;;;;;;;10.48;2.78;;;3.20;99.90;;;;;;5092880;28;20416;-53
2023/04/02 01:01:35;;;;;;;9.52;2.78;;;3.20;99.90;;;;;;5092617;28;20042;-49
2023/04/02 01:04:04;;;;;;;8.75;2.80;;;3.10;99.90;;;;;;5092863;28;20045;-51
2023/04/02 01:06:36;;;;;;;8.20;2.83;;;3.10;99.90;;;;;;5092636;28;20044;-49
2023/04/02 01:09:20;;;;;;;10.57;2.80;;;3.00;99.90;;;;;;5092717;28;20083;-52
2023/04/02 01:12:07;;;;;;;6.90;2.45;;;3.00;99.90;;;;;;5092390;28;20036;-51
2023/04/02 01:15:16;;;;;;;8.50;2.22;;;3.10;99.90;;;;;;5092582;28;20042;-50
2023/04/02 01:17:57;;;;;;;10.57;2.53;;;3.00;99.90;;;;;;5092482;28;20176;-49
2023/04/02 01:20:37;;;;;;;9.98;2.80;;;3.00;99.90;;;;;;5092399;28;20047;-48
2023/04/02 01:23:26;;;;;;;8.65;2.53;;;2.80;99.90;;;;;;5092244;28;20036;-50
2023/04/02 01:26:29;;;;;;;8.15;2.25;;;2.80;99.90;;;;;;5091798;28;20048;-49
2023/04/02 01:29:17;;;;;;;10.43;2.50;;;2.90;99.90;;;;;;5092249;28;20626;-50
2023/04/02 01:31:44;;;;;;;8.95;2.40;;;2.80;99.90;;;;;;5092155;28;20058;-50
2023/04/02 01:34:14;;;;;;;8.80;2.40;;;2.90;99.90;;;;;;5092283;28;20044;-48
2023/04/02 01:36:50;;;;;;;8.48;3.13;;;2.80;99.90;;;;;;5091982;28;20043;-50
2023/04/02 01:39:45;;;;;;;7.97;2.25;;;2.70;99.90;;;;;;5091983;28;20118;-50
2023/04/02 01:42:13;;;;;;;8.68;2.63;;;2.80;99.90;;;;;;5091920;28;20072;-49
2023/04/02 01:44:45;;;;;;;6.05;2.20;;;2.70;99.90;;;;;;5092447;28;20093;-49
2023/04/02 01:47:14;;;;;;;9.05;2.42;;;2.70;99.90;;;;;;5090683;28;20596;-49
2023/04/02 01:49:42;;;;;;;6.78;2.20;;;2.70;99.90;;;;;;5092098;28;20093;-49
2023/04/02 01:52:11;;;;;;;9.50;4.40;;;2.70;99.90;;;;;;5092086;28;20134;-50
2023/04/02 01:54:37;;;;;;;8.77;2.30;;;2.60;99.90;;;;;;5091083;28;20464;-49
2023/04/02 01:57:04;;;;;;;8.55;2.45;;;2.70;99.90;;;;;;5092014;28;20105;-51
2023/04/02 01:59:32;;;;;;;8.80;3.22;;;2.60;99.90;;;;;;5092020;28;20028;-51
2023/04/02 02:02:06;;;;;;;9.38;2.10;;;2.50;99.90;;;;;;5090480;28;20054;-49
2023/04/02 02:04:33;;;;;;;7.93;2.35;;;2.50;99.90;;;;;;5092040;28;20442;-49
2023/04/02 02:06:59;;;;;;;9.15;2.40;;;2.50;99.90;;;;;;5091939;28;20044;-52
2023/04/02 02:09:29;;;;;;;6.88;2.05;;;2.40;99.90;;;;;;5090618;28;20044;-48
2023/04/02 02:11:57;;;;;;;4.78;2.08;;;2.40;99.90;;;;;;5091842;28;20044;-49
2023/04/02 02:14:25;;;;;;;7.95;2.25;;;2.40;99.90;;;;;;5090494;28;20392;-48
2023/04/02 02:16:55;;;;;;;8.75;3.08;;;2.40;99.90;;;;;;5091712;28;20040;-52
2023/04/02 02:19:26;;;;;;;6.50;2.80;;;2.40;99.90;;;;;;5091837;28;20040;-51
2023/04/02 02:22:26;;;;;;;6.80;2.30;;;2.30;99.90;;;;;;5091753;28;20040;-51
2023/04/02 02:24:53;;;;;;;7.85;2.10;;;2.40;99.90;;;;;;5077918;28;20044;-52
2023/04/02 02:27:22;;;;;;;6.93;1.98;;;2.30;99.90;;;;;;5091676;28;20079;-49
2023/04/02 02:29:53;;;;;;;10.45;2.20;;;2.20;99.90;;;;;;5091842;28;20047;-49
2023/04/02 02:32:26;;;;;;;6.47;1.80;;;2.30;99.90;;;;;;5091656;28;20040;-50
2023/04/02 02:35:01;;;;;;;8.23;1.80;;;2.30;99.90;;;;;;5094886;28;20106;-50
2023/04/02 02:37:36;;;;;;;8.63;1.83;;;2.20;99.90;;;;;;5095222;28;20037;-51
2023/04/02 02:40:07;;;;;;;7.43;2.30;;;2.20;99.90;;;;;;5095313;28;20126;-49
2023/04/02 02:42:39;;;;;;;5.72;1.88;;;2.10;99.90;;;;;;5094309;28;20489;-49
2023/04/02 02:45:11;;;;;;;6.55;1.88;;;2.20;99.90;;;;;;5095353;28;20430;-52
2023/04/02 02:47:38;;;;;;;;;;;2.10;99.90;;;;;;5095346;28;20515;-48
2023/04/02 02:50:17;;;;;;;7.55;1.70;;;2.00;99.90;;;;;;5094978;28;19920;-50
2023/04/02 02:52:49;;;;;;;9.38;1.95;;;2.00;99.90;;;;;;5094713;28;20059;-48
2023/04/02 02:55:19;;;;;;;6.88;1.60;;;2.10;99.90;;;;;;5095142;28;20040;-49
2023/04/02 02:58:05;;;;;;;6.22;1.63;;;2.00;99.90;;;;;;5094951;28;20044;-50
2023/04/02 03:00:34;;;;;;;6.80;1.85;;;2.00;99.90;;;;;;5094993;28;20040;-52
2023/04/02 03:03:06;;;;;;;6.85;1.75;;;2.00;99.90;;;;;;5093521;28;20040;-49
2023/04/02 03:05:32;;;;;;;8.52;1.90;;;2.00;99.90;;;;;;5095037;28;20036;-48
2023/04/02 03:08:01;;;;;;;9.40;2.72;;;2.00;99.90;;;;;;5094126;28;20062;-50
2023/04/02 03:10:49;;;;;;;8.90;2.10;;;2.10;99.90;;;;;;5094773;28;20040;-50
2023/04/02 03:13:26;;;;;;;5.72;1.40;;;1.90;99.90;;;;;;5094457;28;20078;-51
2023/04/02 03:16:30;;;;;;;6.68;1.70;;;2.00;99.90;;;;;;5094474;28;20534;-48
2023/04/02 03:19:17;;;;;;;8.20;1.80;;;1.90;99.90;;;;;;5094235;28;20066;-52
2023/04/02 03:22:01;;;;;;;6.15;1.50;;;1.90;99.90;;;;;;5094519;28;20039;-52
2023/04/02 03:24:27;;;;;;;6.63;1.90;;;1.90;99.90;;;;;;5094550;28;20036;-50
2023/04/02 03:27:17;;;;;;;7.75;2.40;;;1.80;99.90;;;;;;5094295;28;20047;-49
2023/04/02 03:30:01;;;;;;;6.97;1.90;;;1.90;99.90;;;;;;5094549;28;20044;-53
2023/04/02 03:32:31;;;;;;;6.85;1.70;;;1.90;99.90;;;;;;5092863;28;20052;-49
2023/04/02 03:35:04;;;;;;;6.78;1.33;;;1.80;99.90;;;;;;5094400;28;20044;-50
2023/04/02 03:37:58;;;;;;;6.43;1.65;;;1.70;99.90;;;;;;5094097;28;20048;-52
2023/04/02 03:40:51;;;;;;;5.10;1.60;;;1.80;99.90;;;;;;5088219;28;20408;-48
2023/04/02 03:43:33;;;;;;;7.25;1.80;;;1.80;99.90;;;;;;5088324;28;20542;-52
2023/04/02 03:46:23;;;;;;;7.85;2.55;;;1.80;99.90;;;;;;5093654;28;20048;-48
2023/04/02 03:48:56;;;;;;;8.63;2.00;;;1.70;99.90;;;;;;5093764;28;20036;-49
2023/04/02 03:51:28;;;;;;;8.35;1.50;;;1.70;99.90;;;;;;5092492;28;20484;-52
2023/04/02 03:53:55;;;;;;;6.53;1.77;;;1.70;99.90;;;;;;5093609;28;20068;-49
2023/04/02 03:56:38;;;;;;;6.80;1.48;;;1.70;99.90;;;;;;5093618;28;20048;-52
2023/04/02 03:59:20;;;;;;;8.18;1.95;;;1.70;99.90;;;;;;5091860;28;20044;-49
2023/04/02 04:01:54;;;;;;;8.55;1.67;;;1.70;99.90;;;;;;5094179;28;20037;-51
2023/04/02 04:04:21;;;;;;;6.45;1.83;;;1.60;99.90;;;;;;5093654;28;20093;-52
2023/04/02 04:06:51;;;;;;;6.10;1.67;;;1.60;99.90;;;;;;5093381;28;20058;-52
2023/04/02 04:09:28;;;;;;;6.25;1.52;;;1.60;99.90;;;;;;5093042;28;20496;-50
2023/04/02 04:12:17;;;;;;;4.05;1.42;;;1.70;99.90;;;;;;5093505;28;20434;-52
2023/04/02 04:14:49;;;;;;;8.68;1.73;;;1.70;99.90;;;;;;5093405;28;20441;-52
2023/04/02 04:17:28;;;;;;;6.10;1.30;;;1.70;99.90;;;;;;5093089;28;20039;-51
2023/04/02 04:20:35;;;;;;;4.55;1.23;;;1.60;99.90;;;;;;5093328;28;20036;-50
2023/04/02 04:23:10;;;;;;;5.75;2.00;;;1.60;99.90;;;;;;5093324;28;20504;-49
2023/04/02 04:25:36;;;;;;;5.90;1.60;;;1.70;99.90;;;;;;5093090;28;20392;-49
2023/04/02 04:28:24;;;;;;;7.22;1.60;;;1.70;99.90;;;;;;5092899;28;20044;-49
2023/04/02 04:31:17;;;;;;;7.20;1.70;;;1.60;99.90;;;;;;5093265;28;20043;-51
2023/04/02 04:33:49;;;;;;;6.82;1.52;;;1.60;99.90;;;;;;5092608;28;20040;-49
2023/04/02 04:36:55;;;;;;;8.48;1.70;;;1.70;99.90;;;;;;5091946;28;20120;-48
2023/04/02 04:39:43;;;;;;;4.15;1.25;;;1.60;99.90;;;;;;5093051;28;20044;-50
2023/04/02 04:42:35;;;;;;;4.93;1.20;;;1.60;99.90;;;;;;5090966;28;20492;-51
2023/04/02 04:45:29;;;;;;;7.05;1.35;;;1.50;99.90;;;;;;5090515;28;20071;-51
2023/04/02 04:48:03;;;;;;;3.90;1.30;;;1.60;99.90;;;;;;5089878;28;20130;-48
2023/04/02 04:50:52;;;;;;;4.30;1.38;;;1.50;99.90;;;;;;5077835;28;20044;-52
2023/04/02 04:53:22;;;;;;;6.40;1.90;;;1.50;99.90;;;;;;5080336;28;20048;-48
2023/04/02 04:55:51;;;;;;;6.47;1.70;;;1.50;99.90;;;;;;5078662;28;20510;-49
2023/04/02 04:58:17;;;;;;;5.93;1.27;;;1.60;99.90;;;;;;5080444;28;20036;-49
2023/04/02 05:01:15;;;;;;;6.63;1.40;;;1.50;99.90;;;;;;5081349;28;20036;-51
2023/04/02 05:04:15;;;;;;;5.43;1.10;;;1.40;99.90;;;;;;5070060;28;20055;-48
2023/04/02 05:07:02;;;;;;;5.55;1.40;;;1.40;99.90;;;;;;5056081;28;20052;-49
2023/04/02 05:09:39;;;;;;;8.40;1.58;;;1.30;99.90;;;;;;5078024;28;20487;-48
2023/04/02 05:12:16;;;;;;;7.85;1.48;;;1.40;99.90;;;;;;5081365;28;20051;-50
2023/04/02 05:15:00;;;;;;;6.05;1.42;;;1.50;99.90;;;;;;5078807;28;20044;-52
2023/04/02 05:17:52;;;;;;;6.70;1.40;;;1.30;99.90;;;;;;5081047;28;20059;-48
2023/04/02 05:20:25;;;;;;;8.70;1.40;;;1.30;99.90;;;;;;5079585;28;20048;-48
2023/04/02 05:22:54;;;;;;;5.47;1.23;;;1.50;99.90;;;;;;5080522;28;20037;-52
2023/04/02 05:25:24;;;;;;;4.85;1.15;;;1.40;99.90;;;;;;5077631;28;20039;-49
2023/04/02 05:28:06;;;;;;;7.57;1.30;;;1.50;99.90;;;;;;5077844;28;20032;-48
2023/04/02 05:30:45;;;;;;;4.35;1.17;;;1.40;99.90;;;;;;5077897;28;20071;-51
2023/04/02 05:33:32;;;;;;;4.75;1.35;;;1.40;99.90;;;;;;5074802;28;20119;-48
2023/04/02 05:36:10;;;;;;;7.43;1.63;;;1.40;99.90;;;;;;5079839;28;20064;-52
2023/04/02 05:38:45;;;;;;;5.93;1.30;;;1.50;99.90;;;;;;5077737;28;20133;-48
2023/04/02 05:41:35;;;;;;;4.93;1.30;;;1.50;99.90;;;;;;5080060;28;20035;-49
2023/04/02 05:44:05;;;;;;;5.07;1.20;;;1.60;99.90;;;;;;5080841;28;20051;-50
2023/04/02 05:46:36;;;;;;;6.45;1.25;;;1.60;99.90;;;;;;5079546;28;20040;-48
2023/04/02 05:49:06;;;;;;;7.47;1.52;;;1.70;99.90;;;;;;5082533;28;20518;-50
2023/04/02 05:51:42;;;;;;;10.70;1.50;;;1.70;99.90;;;;;;5078380;28;20069;-48
2023/04/02 05:54:24;;;;;;;5.72;1.40;;;1.60;99.90;;;;;;5079433;28;20563;-49
2023/04/02 05:56:59;;;;;;;6.65;1.70;;;1.80;99.90;;;;;;5073642;28;20048;-51
2023/04/02 05:59:34;;;;;;;3.42;1.00;;;1.70;99.90;;;;;;5079113;28;20036;-51
2023/04/02 06:02:23;;;;;;;8.95;1.38;;;2.00;99.90;;;;;;5078859;28;20036;-48
2023/04/02 06:05:04;;;;;;;5.72;1.73;;;1.90;99.90;;;;;;5075565;28;20489;-48
2023/04/02 06:07:56;;;;;;;10.25;2.97;;;2.00;99.90;;;;;;5080752;28;20450;-51
2023/04/02 06:10:32;;;;;;;11.03;3.13;;;2.00;99.90;;;;;;5082450;28;20091;-49
2023/04/02 06:13:02;;;;;;;8.85;3.10;;;2.10;99.90;;;;;;5083641;28;20433;-49
2023/04/02 06:15:30;;;;;;;6.95;2.10;;;2.20;99.90;;;;;;5083081;28;20113;-48
2023/04/02 06:18:18;;;;;;;3.97;1.15;;;2.20;99.90;;;;;;5083373;28;20044;-52
2023/04/02 06:20:45;;;;;;;5.13;1.50;;;2.20;99.90;;;;;;5083893;28;20039;-48
2023/04/02 06:23:36;;;;;;;5.60;1.25;;;2.40;99.90;;;;;;5082746;28;20036;-52
2023/04/02 06:26:34;;;;;;;6.05;1.40;;;2.30;99.90;;;;;;5084572;28;20065;-52
2023/04/02 06:29:26;;;;;;;3.80;1.10;;;2.30;99.90;;;;;;5084390;28;20037;-51
2023/04/02 06:31:56;;;;;;;5.18;1.00;;;2.40;99.90;;;;;;5083386;28;20036;-51
2023/04/02 06:34:24;;;;;;;4.72;1.00;;;2.50;99.90;;;;;;5082364;28;20389;-52
2023/04/02 06:36:56;;;;;;;4.95;1.25;;;2.70;99.90;;;;;;5082434;28;20101;-49
2023/04/02 06:39:24;;;;;;;4.82;0.95;;;2.70;99.90;;;;;;5081903;28;20067;-53
2023/04/02 06:42:12;;;;;;;4.20;1.10;;;2.70;99.90;;;;;;5084135;28;20039;-51
2023/04/02 06:44:38;;;;;;;5.75;1.08;;;2.80;99.90;;;;;;5083034;28;20065;-52
2023/04/02 06:47:10;;;;;;;3.38;1.10;;;2.70;99.90;;;;;;5082299;28;20047;-51
2023/04/02 06:49:45;;;;;;;2.47;0.80;;;2.80;99.90;;;;;;5085679;28;20103;-53
2023/04/02 06:52:25;;;;;;;3.97;1.10;;;2.90;99.90;;;;;;5082285;28;20440;-51
2023/04/02 06:54:54;;;;;;;4.50;1.13;;;3.00;99.90;;;;;;5082327;28;20503;-48
2023/04/02 06:57:21;;;;;;;4.22;1.30;;;3.10;99.90;;;;;;5082653;28;20040;-49
2023/04/02 06:59:47;;;;;;;6.50;1.10;;;3.00;99.90;;;;;;5083772;28;20059;-52
2023/04/02 07:02:36;;;;;;;3.08;0.90;;;3.10;99.90;;;;;;5079567;28;20036;-49
2023/04/02 07:05:04;;;;;;;6.30;1.10;;;3.20;99.90;;;;;;5083335;28;20051;-52
2023/04/02 07:07:30;;;;;;;4.05;1.98;;;3.10;99.90;;;;;;5081623;28;20558;-51
2023/04/02 07:09:56;;;;;;;4.55;1.23;;;3.30;99.90;;;;;;5081351;28;20055;-49
2023/04/02 07:12:23;;;;;;;3.47;1.10;;;3.30;99.90;;;;;;5083586;28;20739;-49
2023/04/02 07:14:50;;;;;;;3.95;0.90;;;3.30;99.90;;;;;;5081737;28;20369;-52
2023/04/02 07:17:17;;;;;;;4.78;1.10;;;3.50;99.90;;;;;;5081572;28;20547;-50
2023/04/02 07:19:44;;;;;;;2.75;0.88;;;3.50;99.90;;;;;;5080849;28;20119;-53
2023/04/02 07:22:10;;;;;;;3.05;0.98;;;3.50;99.90;;;;;;5076831;28;20393;-52
2023/04/02 07:24:36;;;;;;;8.48;1.38;;;3.60;99.90;;;;;;5079195;28;20345;-50
2023/04/02 07:27:02;;;;;;;5.90;1.02;;;3.70;99.90;;;;;;5080342;28;20435;-49
2023/04/02 07:29:28;;;;;;;5.45;1.23;;;3.80;99.90;;;;;;5080166;28;20040;-52
2023/04/02 07:31:53;;;;;;;6.43;1.10;;;4.00;99.90;;;;;;5083147;28;20047;-51
2023/04/02 07:34:19;;;;;;;3.38;0.98;;;4.00;99.90;;;;;;5083412;28;20077;-49
2023/04/02 07:36:45;;;;;;;5.15;1.42;;;4.10;99.90;;;;;;5081597;28;20044;-52
2023/04/02 07:39:11;;;;;;;5.55;1.23;;;4.20;99.90;;;;;;5077911;28;20033;-50
2023/04/02 07:41:54;;;;;;;3.90;0.88;;;4.30;99.90;;;;;;5072016;28;20036;-52
2023/04/02 07:44:20;;;;;;;5.72;1.10;;;4.40;99.90;;;;;;5072592;28;20136;-50
2023/04/02 07:46:46;;;;;;;7.63;1.75;;;4.40;99.90;;;;;;5073797;28;20224;-49
2023/04/02 07:49:11;;;;;;;8.07;2.13;;;4.40;99.90;;;;;;5086378;28;20036;-51
2023/04/02 07:51:37;;;;;;;5.30;1.30;;;4.40;99.90;;;;;;5092444;28;20051;-50
2023/04/02 07:54:03;;;;;;;4.90;1.20;;;4.50;99.90;;;;;;5093939;28;20040;-52
2023/04/02 07:56:30;;;;;;;5.93;1.08;;;4.50;99.90;;;;;;5093993;28;20101;-50
2023/04/02 07:58:56;;;;;;;6.25;1.33;;;4.50;99.90;;;;;;5093924;28;20565;-50
2023/04/02 08:01:26;;;;;;;4.97;1.30;;;4.70;99.90;;;;;;5093891;28;20040;-52
2023/04/02 08:03:53;;;;;;;7.20;1.38;;;4.80;99.90;;;;;;5094281;28;20039;-49
2023/04/02 08:06:20;;;;;;;5.57;1.10;;;4.90;99.90;;;;;;5093654;28;20048;-50
2023/04/02 08:08:46;;;;;;;4.78;1.15;;;4.80;99.90;;;;;;5093686;28;20484;-49
2023/04/02 08:11:12;;;;;;;4.03;0.95;;;4.80;99.90;;;;;;5093807;28;20046;-51
2023/04/02 08:13:38;;;;;;;5.45;1.17;;;4.90;99.90;;;;;;5093489;28;20108;-52
2023/04/02 08:16:05;;;;;;;5.45;1.30;;;5.10;99.90;;;;;;5093524;28;20043;-50
2023/04/02 08:18:30;;;;;;;4.72;1.25;;;5.20;99.90;;;;;;5093973;28;20114;-51
2023/04/02 08:20:57;;;;;;;5.35;1.92;;;5.30;99.90;;;;;;5093242;28;20127;-50
2023/04/02 08:23:23;;;;;;;5.85;1.20;;;5.40;99.90;;;;;;5092038;28;20032;-51
2023/04/02 08:25:49;;;;;;;7.93;1.45;;;5.40;99.90;;;;;;5093460;28;20046;-48
2023/04/02 08:28:16;;;;;;;3.75;1.00;;;5.40;99.90;;;;;;5093310;28;20119;-49
2023/04/02 08:30:42;;;;;;;4.82;1.30;;;5.30;99.90;;;;;;5092638;28;20032;-51
2023/04/02 08:33:08;;;;;;;6.93;1.27;;;5.30;99.90;;;;;;5093065;28;20047;-48
2023/04/02 08:35:33;;;;;;;4.38;1.23;;;5.30;99.90;;;;;;5093116;28;20036;-49
2023/04/02 08:38:00;;;;;;;3.70;1.20;;;5.40;99.90;;;;;;5092816;28;20101;-50
2023/04/02 08:40:52;;;;;;;5.70;1.30;;;5.40;99.90;;;;;;5091709;28;20040;-49
2023/04/02 08:43:37;;;;;;;5.25;1.25;;;5.50;99.90;;;;;;5092295;28;20044;-51
2023/04/02 08:46:21;;;;;;;6.47;1.77;;;5.60;99.90;;;;;;5091667;28;20036;-52
2023/04/02 08:48:54;;;;;;;5.10;1.48;;;5.60;99.90;;;;;;5091728;28;20050;-48
2023/04/02 08:51:24;;;;;;;;;;;5.60;99.90;;;;;;5093260;28;20040;-52
2023/04/02 08:54:19;;;;;;;3.83;0.90;;;5.60;99.90;;;;;;5089404;27;20189;-50
2023/04/02 08:57:24;;;;;;;5.60;1.17;;;5.40;99.90;;;;;;5089560;28;20067;-52
2023/04/02 08:59:59;;;;;;;4.40;1.23;;;5.30;99.90;;;;;;5081352;28;20123;-49
2023/04/02 09:02:28;;;;;;;4.82;1.20;;;5.30;99.90;;;;;;5089269;28;20079;-49
2023/04/02 09:04:57;;;;;;;4.82;1.08;;;5.40;99.90;;;;;;5089269;28;20044;-49
2023/04/02 09:07:23;;;;;;;6.72;1.40;;;5.40;99.90;;;;;;5089084;28;20496;-50
2023/04/02 09:09:50;;;;;;;4.60;1.20;;;5.40;99.90;;;;;;5089351;28;20052;-50
2023/04/02 09:12:19;;;;;;;6.22;1.30;;;5.30;99.90;;;;;;5088850;28;20045;-52
2023/04/02 09:15:11;;;;;;;5.82;1.17;;;5.30;99.90;;;;;;5088834;28;20043;-51
2023/04/02 09:17:38;;;;;;;4.57;1.10;;;5.30;99.90;;;;;;5089092;28;20079;-49
2023/04/02 09:20:20;;;;;;;3.75;1.10;;;5.40;99.90;;;;;;5089144;28;20147;-49
2023/04/02 09:22:49;;;;;;;4.15;1.88;;;5.60;99.90;;;;;;5088787;28;20036;-48
2023/04/02 09:25:25;;;;;;;4.30;1.00;;;5.60;99.90;;;;;;5088805;28;20048;-51
2023/04/02 09:27:54;;;;;;;1.90;1.20;;;5.80;99.90;;;;;;5089096;28;20043;-50
2023/04/02 09:30:31;;;;;;;6.18;0.98;;;6.00;99.90;;;;;;5088455;28;20040;-48
2023/04/02 09:33:01;;;;;;;5.90;1.10;;;6.10;99.90;;;;;;5088567;28;20476;-53
2023/04/02 09:35:31;;;;;;;3.63;1.00;;;6.30;99.90;;;;;;5088735;28;20039;-49
2023/04/02 09:38:06;;;;;;;7.75;1.40;;;6.30;99.90;;;;;;5088478;28;20481;-49
2023/04/02 09:40:40;;;;;;;4.30;1.10;;;6.30;99.90;;;;;;5088370;28;20506;-49
2023/04/02 09:43:15;;;;;;;5.38;1.30;;;6.30;99.90;;;;;;5087179;28;20036;-49
2023/04/02 09:45:43;;;;;;;3.70;0.98;;;6.30;99.90;;;;;;5088258;28;20388;-52
2023/04/02 09:48:24;;;;;;;5.20;1.20;;;6.30;99.90;;;;;;5088299;28;20032;-50
2023/04/02 09:51:01;;;;;;;3.80;1.08;;;6.40;99.90;;;;;;5088651;28;20052;-49
2023/04/02 09:53:34;;;;;;;4.13;0.90;;;6.50;99.90;;;;;;5087902;28;20052;-49
2023/04/02 09:56:15;;;;;;;3.42;0.88;;;6.60;99.90;;;;;;5088419;28;20133;-53
2023/04/02 09:58:43;;;;;;;3.78;0.98;;;6.50;99.90;;;;;;5088438;28;20040;-50
2023/04/02 10:01:37;;;;;;;5.25;1.02;;;6.60;99.90;;;;;;5086871;28;20040;-51
2023/04/02 10:04:05;;;;;;;3.92;0.90;;;6.60;99.90;;;;;;5080222;28;20076;-52
2023/04/02 10:06:34;;;;;;;2.70;0.73;;;6.70;99.90;;;;;;5074640;28;20123;-53
2023/04/02 10:09:25;;;;;;;2.97;1.10;;;6.80;99.90;;;;;;5074266;28;20048;-49
2023/04/02 10:11:52;;;;;;;5.10;1.10;;;6.90;99.90;;;;;;5074685;28;20048;-51
2023/04/02 10:14:22;;;;;;;4.82;1.00;;;6.90;99.90;;;;;;5074370;28;20107;-53
2023/04/02 10:16:55;;;;;;;4.68;1.75;;;6.90;99.90;;;;;;5074863;28;20033;-50
2023/04/02 10:19:23;;;;;;;4.20;0.82;;;7.00;99.90;;;;;;5074233;28;20040;-51
2023/04/02 10:21:51;;;;;;;2.22;0.70;;;7.00;99.90;;;;;;5074208;28;20044;-51
2023/04/02 10:24:17;;;;;;;5.10;0.90;;;7.00;99.90;;;;;;5074163;28;20048;-49
2023/04/02 10:26:55;;;;;;;4.28;1.00;;;7.10;99.90;;;;;;5074306;28;20538;-49
2023/04/02 10:29:38;;;;;;;4.85;1.17;;;7.30;99.90;;;;;;5074139;28;20040;-51
2023/04/02 10:32:33;;;;;;;5.28;0.90;;;7.30;99.90;;;;;;5074026;28;20048;-50
2023/04/02 10:35:34;;;;;;;5.20;0.98;;;7.30;99.90;;;;;;5073967;28;20447;-49
2023/04/02 10:38:21;;;;;;;3.25;0.85;;;7.40;99.90;;;;;;5064841;28;20416;-49
2023/04/02 10:40:54;;;;;;;5.55;1.02;;;7.40;99.90;;;;;;5073881;28;20040;-49
2023/04/02 10:43:50;;;;;;;4.60;0.95;;;7.40;99.90;;;;;;5073693;28;20557;-51
2023/04/02 10:46:16;;;;;;;5.82;1.20;;;7.50;99.90;;;;;;5073911;28;20048;-50
2023/04/02 10:49:13;;;;;;;5.10;0.80;;;7.50;99.90;;;;;;5073521;28;20040;-50
2023/04/02 10:51:54;;;;;;;3.50;0.95;;;7.60;99.90;;;;;;5072751;28;20056;-51
2023/04/02 10:54:38;;;;;;;2.05;0.90;;;7.50;99.90;;;;;;5073651;28;20443;-50
2023/04/02 10:57:25;;;;;;;3.90;0.88;;;7.50;99.90;;;;;;5073718;28;20050;-50
2023/04/02 11:00:21;;;;;;;4.93;1.40;;;7.50;99.90;;;;;;5073535;28;20416;-49
2023/04/02 11:03:12;;;;;;;6.82;0.90;;;7.50;99.90;;;;;;5072985;28;20056;-52
2023/04/02 11:05:52;;;;;;;4.68;0.95;;;7.70;99.90;;;;;;5073302;28;20434;-52
2023/04/02 11:08:43;;;;;;;6.07;0.90;;;7.60;99.90;;;;;;5073494;28;20509;-49
2023/04/02 11:11:20;;;;;;;4.00;1.00;;;7.70;99.90;;;;;;5073375;28;20500;-51
2023/04/02 11:13:49;;;;;;;2.92;0.70;;;7.70;99.90;;;;;;5073180;28;20041;-49
2023/04/02 11:16:15;;;;;;;3.33;1.10;;;7.60;99.90;;;;;;5072389;28;20049;-49
2023/04/02 11:18:41;;;;;;;4.93;1.00;;;7.70;99.90;;;;;;5073029;28;20044;-50
2023/04/02 11:21:39;;;;;;;6.00;1.17;;;7.80;99.90;;;;;;5073163;28;20626;-51
2023/04/02 11:24:21;;;;;;;3.97;0.80;;;8.00;99.90;;;;;;5063587;28;20056;-49
2023/04/02 11:26:47;;;;;;;3.25;0.80;;;8.00;99.90;;;;;;5073110;28;20036;-49
2023/04/02 11:29:21;;;;;;;3.08;0.70;;;7.90;99.90;;;;;;5073065;28;20131;-49
2023/04/02 11:31:48;;;;;;;3.45;1.33;;;7.80;99.90;;;;;;5073054;28;20396;-49
2023/04/02 11:34:40;;;;;;;5.45;1.10;;;8.00;99.90;;;;;;5071820;28;20214;-48
2023/04/02 11:37:30;;;;;;;5.18;1.30;;;8.10;99.90;;;;;;5072720;28;20044;-48
2023/04/02 11:40:37;;;;;;;5.57;1.38;;;8.00;99.90;;;;;;5072692;28;20041;-51
2023/04/02 11:43:37;;;;;;;4.03;1.05;;;8.30;99.90;;;;;;5072659;28;20071;-49
2023/04/02 11:46:17;;;;;;;4.80;1.10;;;8.30;99.90;;;;;;5072871;28;20061;-51
2023/04/02 11:48:43;;;;;;;5.05;1.10;;;8.30;99.90;;;;;;5071472;28;20047;-50
2023/04/02 11:51:21;;;;;;;5.00;1.00;;;8.40;99.90;;;;;;5070995;28;20463;-51
2023/04/02 11:53:49;;;;;;;2.83;0.88;;;8.40;99.90;;;;;;5070747;28;20056;-50
2023/04/02 11:56:20;;;;;;;4.57;1.15;;;8.50;99.90;;;;;;5071199;28;20473;-49
2023/04/02 11:59:22;;;;;;;3.33;0.80;;;8.60;99.90;;;;;;5072471;28;20040;-51
2023/04/02 12:02:00;;;;;;;4.40;0.80;;;8.40;99.90;;;;;;5072320;28;20139;-52
2023/04/02 12:05:03;;;;;;;6.25;1.30;;;8.50;99.90;;;;;;5072455;28;20087;-53
2023/04/02 12:07:33;;;;;;;;;;;8.60;99.90;;;;;;5065699;28;20126;-52
2023/04/02 12:10:14;;;;;;;3.70;0.70;;;8.70;99.90;;;;;;5072230;28;19928;-50
2023/04/02 12:12:41;;;;;;;5.22;0.90;;;8.60;99.90;;;;;;5072270;28;20052;-51
2023/04/02 12:15:32;;;;;;;7.75;1.30;;;8.60;99.90;;;;;;5072235;28;20036;-48
2023/04/02 12:18:18;;;;;;;6.85;1.20;;;8.50;99.90;;;;;;5071961;28;20123;-48
2023/04/02 12:20:49;;;;;;;3.70;1.13;;;8.60;99.90;;;;;;5072232;28;20048;-49
2023/04/02 12:23:21;;;;;;;2.80;0.80;;;8.70;99.90;;;;;;5072177;28;20044;-48
2023/04/02 12:25:57;;;;;;;2.72;0.90;;;8.80;99.90;;;;;;5071882;28;20045;-49
2023/04/02 12:28:23;;;;;;;3.08;0.95;;;8.80;99.90;;;;;;5071583;28;20037;-52
2023/04/02 12:30:50;;;;;;;6.32;1.15;;;8.90;99.90;;;;;;5070628;28;20501;-50
2023/04/02 12:33:19;;;;;;;4.85;1.20;;;9.00;99.90;;;;;;5072038;28;20090;-49
2023/04/02 12:35:53;;;;;;;4.15;1.05;;;9.00;99.90;;;;;;5070737;28;20102;-51
2023/04/02 12:38:22;;;;;;;3.13;0.82;;;8.90;99.90;;;;;;5072082;28;20241;-50
2023/04/02 12:40:55;;;;;;;4.43;1.08;;;8.80;99.90;;;;;;5071748;28;20477;-52
2023/04/02 12:43:38;;;;;;;9.13;1.23;;;8.90;99.90;;;;;;5070421;28;20047;-53
2023/04/02 12:46:07;;;;;;;6.30;1.10;;;8.80;99.90;;;;;;5071790;28;20084;-49
2023/04/02 12:48:34;;;;;;;3.25;1.10;;;8.80;99.90;;;;;;5071844;28;20043;-53
2023/04/02 12:51:01;;;;;;;4.10;0.90;;;8.90;99.90;;;;;;5071678;28;20116;-48
2023/04/02 12:53:35;;;;;;;4.32;1.30;;;8.90;99.90;;;;;;5071727;28;20558;-49
2023/04/02 12:56:02;;;;;;;2.17;0.90;;;8.80;99.90;;;;;;5071512;28;20098;-50
2023/04/02 12:58:40;;;;;;;4.28;1.08;;;8.90;99.90;;;;;;5071936;28;20037;-49
2023/04/02 13:01:17;;;;;;;4.20;0.80;;;8.70;99.90;;;;;;5071585;28;20068;-49
2023/04/02 13:04:05;;;;;;;3.78;1.00;;;8.80;99.90;;;;;;5071608;28;20128;-48
2023/04/02 13:06:32;;;;;;;4.68;0.90;;;8.90;99.90;;;;;;5071525;28;20076;-48
2023/04/02 13:09:00;;;;;;;2.70;0.90;;;8.80;99.90;;;;;;5070479;28;20048;-49
2023/04/02 13:11:36;;;;;;;4.07;1.45;;;9.00;99.90;;;;;;5071392;28;20071;-50
2023/04/02 13:14:05;;;;;;;5.20;1.33;;;8.90;99.90;;;;;;5070278;28;20123;-49
2023/04/02 13:16:38;;;;;;;5.43;1.17;;;9.10;99.90;;;;;;5070322;28;20366;-49
2023/04/02 13:19:16;;;;;;;3.30;1.17;;;9.00;99.90;;;;;;5071323;28;20056;-49
2023/04/02 13:21:42;;;;;;;3.53;1.10;;;9.10;99.90;;;;;;5071567;28;20037;-51
2023/04/02 13:24:21;;;;;;;3.08;1.02;;;8.90;99.90;;;;;;5071488;28;20417;-48
2023/04/02 13:26:49;;;;;;;6.32;1.08;;;8.80;99.90;;;;;;5071342;28;20047;-48
2023/04/02 13:29:28;;;;;;;4.68;1.20;;;8.90;99.90;;;;;;5071112;28;20079;-50
2023/04/02 13:31:57;;;;;;;3.03;1.02;;;8.90;99.90;;;;;;5071340;28;20392;-49
2023/04/02 13:34:22;;;;;;;4.28;1.10;;;8.90;99.90;;;;;;5071380;28;20071;-49
2023/04/02 13:36:48;;;;;;;3.30;1.10;;;8.90;99.90;;;;;;5071233;28;20592;-49
2023/04/02 13:39:14;;;;;;;3.35;0.88;;;8.90;99.90;;;;;;5072496;28;20046;-49
2023/04/02 13:41:49;;;;;;;3.45;1.00;;;8.90;99.90;;;;;;5074910;28;20043;-49
2023/04/02 13:44:21;;;;;;;4.03;1.10;;;8.80;99.90;;;;;;5075253;28;20097;-48